createdAt,value
2022-11-05T00:02:05.988Z,89.88
2022-11-05T00:04:33.941Z,89.96
2022-11-05T00:07:06.453Z,89.60
2022-11-05T00:09:33.562Z,89.84
2022-11-05T00:12:03.232Z,89.89
2022-11-05T00:14:29.773Z,90.08
2022-11-05T00:16:56.243Z,90.02
2022-11-05T00:19:22.756Z,89.86
2022-11-05T00:21:50.637Z,90.10
2022-11-05T00:24:21.723Z,89.92
2022-11-05T00:26:50.634Z,89.80
2022-11-05T00:29:17.315Z,89.99
2022-11-05T00:31:43.854Z,90.09
2022-11-05T00:34:10.400Z,89.99
2022-11-05T00:36:36.994Z,90.03
2022-11-05T00:39:06.754Z,90.10
2022-11-05T00:41:33.321Z,90.08
2022-11-05T00:44:00.051Z,90.01
2022-11-05T00:46:26.916Z,90.17
2022-11-05T00:48:53.479Z,89.63
2022-11-05T00:51:20.296Z,89.89
2022-11-05T00:53:46.808Z,89.83
2022-11-05T00:56:14.941Z,89.60
2022-11-05T00:58:41.589Z,89.81
2022-11-05T01:01:10.592Z,90.14
2022-11-05T01:03:39.369Z,89.62
2022-11-05T01:06:08.192Z,89.44
2022-11-05T01:08:34.807Z,89.38
2022-11-05T01:11:08.637Z,89.27
2022-11-05T01:13:36.704Z,89.43
2022-11-05T01:16:06.663Z,89.17
2022-11-05T01:18:33.267Z,89.23
2022-11-05T01:20:59.886Z,89.10
2022-11-05T01:23:26.624Z,88.99
2022-11-05T01:25:53.258Z,88.72
2022-11-05T01:28:19.878Z,88.73
2022-11-05T01:30:55.345Z,88.54
2022-11-05T01:33:21.869Z,88.57
2022-11-05T01:35:48.373Z,88.62
2022-11-05T01:38:14.849Z,88.42
2022-11-05T01:40:42.896Z,88.50
2022-11-05T01:43:16.013Z,88.21
2022-11-05T01:45:43.970Z,88.44
2022-11-05T01:48:16.481Z,88.32
2022-11-05T01:50:46.650Z,88.46
2022-11-05T01:53:19.726Z,88.06
2022-11-05T01:55:51.506Z,88.14
2022-11-05T01:58:22.361Z,87.98
2022-11-05T02:00:49.004Z,88.16
2022-11-05T02:03:18.088Z,87.83
2022-11-05T02:05:46.220Z,87.82
2022-11-05T02:08:19.893Z,87.98
2022-11-05T02:10:47.355Z,88.35
2022-11-05T02:13:14.078Z,88.11
2022-11-05T02:15:49.556Z,88.30
2022-11-05T02:18:27.648Z,88.41
2022-11-05T02:21:05.534Z,88.49
2022-11-05T02:23:57.738Z,88.31
2022-11-05T02:26:54.698Z,88.55
2022-11-05T02:29:54.333Z,88.24
2022-11-05T02:32:32.804Z,88.59
2022-11-05T02:35:11.345Z,88.75
2022-11-05T02:37:40.485Z,88.88
2022-11-05T02:40:16.493Z,89.00
2022-11-05T02:42:47.016Z,88.97
2022-11-05T02:45:26.566Z,88.90
2022-11-05T02:48:04.481Z,89.03
2022-11-05T02:50:34.836Z,88.94
2022-11-05T02:53:11.737Z,88.26
2022-11-05T02:55:42.202Z,88.71
2022-11-05T02:58:09.003Z,88.41
2022-11-05T03:00:48.758Z,88.40
2022-11-05T03:03:27.754Z,88.25
2022-11-05T03:06:23.772Z,88.22
2022-11-05T03:09:19.721Z,87.91
2022-11-05T03:11:55.007Z,87.97
2022-11-05T03:14:26.778Z,88.02
2022-11-05T03:17:01.881Z,88.15
2022-11-05T03:19:38.428Z,87.82
2022-11-05T03:22:10.167Z,87.78
2022-11-05T03:24:42.012Z,87.95
2022-11-05T03:27:11.660Z,88.00
2022-11-05T03:29:42.443Z,87.72
2022-11-05T03:32:10.860Z,88.31
2022-11-05T03:34:42.737Z,88.27
2022-11-05T03:37:11.029Z,88.27
2022-11-05T03:39:40.896Z,88.21
2022-11-05T03:42:11.483Z,88.10
2022-11-05T03:44:42.233Z,88.31
2022-11-05T03:47:13.741Z,87.99
2022-11-05T03:49:52.961Z,88.13
2022-11-05T03:52:23.809Z,87.83
2022-11-05T03:54:50.472Z,87.55
2022-11-05T03:57:21.727Z,87.78
2022-11-05T03:59:50.524Z,87.87
2022-11-05T04:02:19.850Z,87.70
2022-11-05T04:04:48.188Z,87.86
2022-11-05T04:07:14.896Z,87.78
2022-11-05T04:09:41.470Z,87.39
2022-11-05T04:12:08.523Z,87.62
2022-11-05T04:14:35.205Z,87.71
2022-11-05T04:17:01.740Z,87.60
2022-11-05T04:19:28.401Z,87.47
2022-11-05T04:21:56.311Z,87.59
2022-11-05T04:24:22.836Z,87.39
2022-11-05T04:26:49.305Z,87.07
2022-11-05T04:29:15.847Z,86.76
2022-11-05T04:31:42.375Z,86.37
2022-11-05T04:34:08.873Z,86.63
2022-11-05T04:36:35.608Z,86.57
2022-11-05T04:39:03.768Z,86.47
2022-11-05T04:41:30.384Z,86.34
2022-11-05T04:43:57.022Z,86.23
2022-11-05T04:46:23.734Z,86.04
2022-11-05T04:48:50.290Z,85.92
2022-11-05T04:51:16.871Z,85.84
2022-11-05T04:53:43.380Z,85.48
2022-11-05T04:56:12.864Z,85.38
2022-11-05T04:58:40.215Z,85.08
2022-11-05T05:01:06.910Z,85.10
2022-11-05T05:03:33.480Z,84.93
2022-11-05T05:06:03.688Z,84.95
2022-11-05T05:08:30.627Z,84.96
2022-11-05T05:11:01.618Z,85.05
2022-11-05T05:13:29.451Z,85.16
2022-11-05T05:15:55.955Z,85.59
2022-11-05T05:18:22.414Z,85.35
2022-11-05T05:20:48.907Z,85.46
2022-11-05T05:23:15.363Z,85.57
2022-11-05T05:25:41.909Z,85.69
2022-11-05T05:28:08.456Z,85.84
2022-11-05T05:30:36.371Z,85.86
2022-11-05T05:33:03.431Z,85.66
2022-11-05T05:35:30.078Z,85.74
2022-11-05T05:37:57.131Z,85.82
2022-11-05T05:40:23.634Z,86.24
2022-11-05T05:42:53.681Z,86.32
2022-11-05T05:45:20.289Z,86.54
2022-11-05T05:47:48.341Z,86.41
2022-11-05T05:50:15.047Z,86.70
2022-11-05T05:52:41.508Z,86.65
2022-11-05T05:55:08.820Z,86.36
2022-11-05T05:57:35.313Z,86.62
2022-11-05T06:00:01.915Z,86.75
2022-11-05T06:02:30.210Z,86.60
2022-11-05T06:04:58.396Z,86.98
2022-11-05T06:07:24.928Z,87.38
2022-11-05T06:09:51.464Z,87.32
2022-11-05T06:12:18.044Z,87.50
2022-11-05T06:14:44.566Z,87.71
2022-11-05T06:17:11.196Z,87.79
2022-11-05T06:19:37.742Z,87.64
2022-11-05T06:22:05.579Z,87.56
2022-11-05T06:24:32.209Z,87.40
2022-11-05T06:26:58.852Z,87.35
2022-11-05T06:29:25.390Z,87.37
2022-11-05T06:31:51.943Z,87.70
2022-11-05T06:34:18.409Z,87.62
2022-11-05T06:36:45.030Z,87.55
2022-11-05T06:39:13.169Z,87.63
2022-11-05T06:42:03.837Z,87.64
2022-11-05T06:44:26.502Z,87.49
2022-11-05T06:46:53.004Z,87.56
2022-11-05T06:49:19.557Z,87.63
2022-11-05T06:51:46.051Z,87.57
2022-11-05T06:54:13.937Z,87.59
2022-11-05T06:56:40.641Z,87.57
2022-11-05T06:59:07.137Z,87.65
2022-11-05T07:01:34.145Z,87.76
2022-11-05T07:04:00.975Z,87.83
2022-11-05T07:06:27.651Z,88.11
2022-11-05T07:08:54.183Z,88.35
2022-11-05T07:11:22.082Z,88.34
2022-11-05T07:13:48.637Z,88.38
2022-11-05T07:16:15.186Z,88.57
2022-11-05T07:18:41.745Z,88.53
2022-11-05T07:21:08.222Z,88.79
2022-11-05T07:23:34.697Z,88.61
2022-11-05T07:26:01.301Z,88.94
2022-11-05T07:28:29.201Z,88.70
2022-11-05T07:30:58.248Z,88.79
2022-11-05T07:33:24.735Z,88.92
2022-11-05T07:35:51.273Z,88.94
2022-11-05T07:38:17.795Z,88.80
2022-11-05T07:40:44.274Z,88.87
2022-11-05T07:43:11.116Z,88.85
2022-11-05T07:45:39.168Z,89.01
2022-11-05T07:48:06.422Z,88.96
2022-11-05T07:50:34.693Z,88.96
2022-11-05T07:53:02.159Z,88.67
2022-11-05T07:55:29.229Z,88.69
2022-11-05T08:01:25.767Z,88.93
2022-11-05T08:03:52.688Z,89.15
2022-11-05T08:06:19.276Z,89.15
2022-11-05T08:08:45.805Z,89.18
2022-11-05T08:11:12.413Z,89.50
2022-11-05T08:13:39.158Z,89.24
2022-11-05T08:16:06.529Z,89.59
2022-11-05T08:18:35.603Z,89.89
2022-11-05T08:21:04.183Z,89.85
2022-11-05T08:23:32.091Z,89.83
2022-11-05T08:25:58.945Z,89.84
2022-11-05T08:28:26.378Z,90.20
2022-11-05T08:30:54.705Z,89.96
2022-11-05T08:33:22.329Z,89.80
2022-11-05T08:35:50.690Z,90.09
2022-11-05T08:38:19.061Z,89.83
2022-11-05T08:40:52.895Z,89.35
2022-11-05T08:43:19.483Z,88.96
2022-11-05T08:45:46.181Z,89.28
2022-11-05T08:48:14.421Z,88.84
2022-11-05T08:50:41.203Z,88.84
2022-11-05T08:53:10.178Z,88.14
2022-11-05T08:55:37.300Z,87.43
2022-11-05T08:58:07.678Z,86.81
2022-11-05T09:00:36.693Z,87.34
2022-11-05T09:03:06.347Z,86.58
2022-11-05T09:05:34.215Z,86.79
2022-11-05T09:08:01.748Z,86.42
2022-11-05T09:10:29.715Z,86.18
2022-11-05T09:12:56.313Z,85.64
2022-11-05T09:15:22.986Z,86.51
2022-11-05T09:17:49.641Z,86.69
2022-11-05T09:20:16.140Z,85.42
2022-11-05T09:22:43.567Z,85.20
2022-11-05T09:25:10.351Z,84.07
2022-11-05T09:27:38.244Z,84.82
2022-11-05T09:30:05.636Z,84.53
2022-11-05T09:32:32.290Z,85.11
2022-11-05T09:34:59.069Z,84.30
2022-11-05T09:37:25.756Z,84.53
2022-11-05T09:39:52.479Z,83.52
2022-11-05T09:42:23.325Z,83.17
2022-11-05T09:44:54.468Z,83.04
2022-11-05T09:47:26.098Z,82.81
2022-11-05T09:49:55.016Z,82.81
2022-11-05T09:52:23.633Z,82.23
2022-11-05T09:54:50.551Z,81.83
2022-11-05T09:57:21.939Z,81.63
2022-11-05T09:59:53.289Z,80.36
2022-11-05T10:02:23.066Z,81.29
2022-11-05T10:04:53.914Z,81.21
2022-11-05T10:07:24.147Z,81.04
2022-11-05T10:09:56.600Z,80.42
2022-11-05T10:12:28.587Z,80.77
2022-11-05T10:15:07.111Z,79.84
2022-11-05T10:17:39.248Z,80.48
2022-11-05T10:20:15.043Z,79.12
2022-11-05T10:22:45.199Z,79.06
2022-11-05T10:25:18.839Z,78.91
2022-11-05T10:27:50.376Z,79.28
2022-11-05T10:30:18.874Z,78.86
2022-11-05T10:32:46.488Z,78.60
2022-11-05T10:35:15.691Z,78.79
2022-11-05T10:37:42.224Z,78.53
2022-11-05T10:40:16.273Z,79.22
2022-11-05T10:42:56.658Z,79.19
2022-11-05T10:45:32.621Z,78.65
2022-11-05T10:51:27.996Z,77.30
2022-11-05T10:54:01.840Z,77.31
2022-11-05T10:56:32.182Z,77.51
2022-11-05T10:59:00.137Z,77.72
2022-11-05T11:01:29.138Z,76.59
2022-11-05T11:04:07.122Z,76.33
2022-11-05T11:06:36.121Z,76.86
2022-11-05T11:09:06.460Z,76.76
2022-11-05T11:11:35.904Z,76.27
2022-11-05T11:14:05.139Z,75.38
2022-11-05T11:16:38.702Z,75.21
2022-11-05T11:19:23.797Z,74.71
2022-11-05T11:22:12.469Z,74.78
2022-11-05T11:24:40.633Z,74.66
2022-11-05T11:27:12.318Z,74.89
2022-11-05T11:29:46.449Z,74.03
2022-11-05T11:32:19.451Z,74.46
2022-11-05T11:34:51.135Z,74.71
2022-11-05T11:37:22.360Z,74.42
2022-11-05T11:39:52.110Z,73.37
2022-11-05T11:42:23.775Z,73.35
2022-11-05T11:44:51.549Z,73.03
2022-11-05T11:47:21.973Z,72.31
2022-11-05T11:49:51.637Z,71.71
2022-11-05T11:52:24.799Z,72.00
2022-11-05T11:54:52.064Z,72.50
2022-11-05T11:57:24.373Z,72.27
2022-11-05T12:00:08.305Z,71.44
2022-11-05T12:02:57.307Z,70.99
2022-11-05T12:05:35.507Z,70.87
2022-11-05T12:08:12.945Z,71.51
2022-11-05T12:10:54.755Z,70.86
2022-11-05T12:13:54.676Z,70.99
2022-11-05T12:16:33.770Z,71.64
2022-11-05T12:19:11.314Z,70.85
2022-11-05T12:21:53.077Z,70.71
2022-11-05T12:25:04.014Z,70.57
2022-11-05T12:27:45.760Z,71.50
2022-11-05T12:30:15.833Z,72.20
2022-11-05T12:33:06.690Z,71.61
2022-11-05T12:35:48.989Z,72.34
2022-11-05T12:38:32.480Z,69.60
2022-11-05T12:41:08.573Z,70.26
2022-11-05T12:43:48.906Z,69.46
2022-11-05T12:46:28.194Z,70.20
2022-11-05T12:49:18.288Z,69.82
2022-11-05T12:52:10.434Z,70.15
2022-11-05T12:54:52.900Z,70.31
2022-11-05T12:57:20.853Z,70.39
2022-11-05T12:59:52.274Z,70.91
2022-11-05T13:02:25.533Z,71.09
2022-11-05T13:04:56.424Z,71.23
2022-11-05T13:07:29.342Z,70.88
2022-11-05T13:10:00.811Z,70.95
2022-11-05T13:12:31.782Z,70.45
2022-11-05T13:15:03.031Z,70.78
2022-11-05T13:17:36.975Z,69.73
2022-11-05T13:20:16.979Z,70.81
2022-11-05T13:22:48.237Z,70.17
2022-11-05T13:25:19.928Z,71.10
2022-11-05T13:27:53.317Z,70.86
2022-11-05T13:30:22.587Z,70.92
2022-11-05T13:32:54.164Z,70.16
2022-11-05T13:35:24.955Z,69.68
2022-11-05T13:37:57.389Z,69.57
2022-11-05T13:40:36.142Z,69.31
2022-11-05T13:43:26.104Z,69.15
2022-11-05T13:46:20.012Z,69.29
2022-11-05T13:49:03.615Z,69.71
2022-11-05T13:51:49.956Z,69.04
2022-11-05T13:54:56.800Z,69.29
2022-11-05T13:57:48.308Z,69.81
2022-11-05T14:00:19.199Z,69.74
2022-11-05T14:02:51.428Z,69.91
2022-11-05T14:05:27.127Z,70.03
2022-11-05T14:07:54.727Z,69.82
2022-11-05T14:10:36.879Z,70.03
2022-11-05T14:13:18.717Z,70.26
2022-11-05T14:16:03.162Z,70.34
2022-11-05T14:18:44.851Z,70.42
2022-11-05T14:21:44.865Z,70.11
2022-11-05T14:24:42.171Z,70.77
2022-11-05T14:27:45.325Z,70.90
2022-11-05T14:30:43.994Z,71.56
2022-11-05T14:33:17.567Z,71.53
2022-11-05T14:35:44.124Z,71.94
2022-11-05T14:38:20.904Z,72.38
2022-11-05T14:40:48.689Z,72.72
2022-11-05T14:43:21.430Z,73.00
2022-11-05T14:45:57.030Z,72.85
2022-11-05T14:48:36.804Z,73.09
2022-11-05T14:51:24.281Z,73.69
2022-11-05T14:53:57.827Z,73.91
2022-11-05T14:56:24.667Z,73.93
2022-11-05T14:59:30.887Z,74.31
2022-11-05T15:02:01.486Z,74.29
2022-11-05T15:04:30.539Z,74.50
2022-11-05T15:07:31.764Z,74.97
2022-11-05T15:10:07.247Z,74.78
2022-11-05T15:12:41.095Z,74.94
2022-11-05T15:15:22.150Z,75.59
2022-11-05T15:17:58.192Z,75.39
2022-11-05T15:20:38.829Z,75.75
2022-11-05T15:23:11.279Z,75.60
2022-11-05T15:25:47.805Z,75.98
2022-11-05T15:28:28.970Z,75.94
2022-11-05T15:30:59.501Z,76.16
2022-11-05T15:33:26.214Z,76.43
2022-11-05T15:35:52.891Z,76.39
2022-11-05T15:38:29.353Z,76.37
2022-11-05T15:41:03.677Z,76.83
2022-11-05T15:43:30.504Z,76.86
2022-11-05T15:46:06.958Z,76.86
2022-11-05T15:48:35.603Z,76.55
2022-11-05T15:51:02.276Z,76.88
2022-11-05T15:54:23.867Z,77.19
2022-11-05T15:56:49.445Z,77.45
2022-11-05T15:59:18.273Z,77.17
2022-11-05T16:01:48.990Z,77.21
2022-11-05T16:04:18.663Z,77.33
2022-11-05T16:06:49.191Z,77.16
2022-11-05T16:09:21.922Z,77.44
2022-11-05T16:11:48.472Z,77.85
2022-11-05T16:14:17.540Z,78.13
2022-11-05T16:16:45.136Z,78.16
2022-11-05T16:19:40.226Z,78.15
2022-11-05T16:22:07.884Z,78.26
2022-11-05T16:24:34.591Z,78.19
2022-11-05T16:27:03.449Z,78.49
2022-11-05T16:29:32.958Z,78.33
2022-11-05T16:32:01.974Z,78.46
2022-11-05T16:34:33.449Z,78.56
2022-11-05T16:37:01.507Z,78.43
2022-11-05T16:39:28.029Z,78.84
2022-11-05T16:41:54.523Z,78.82
2022-11-05T16:44:21.085Z,78.78
2022-11-05T16:46:49.458Z,78.91
2022-11-05T16:49:17.165Z,79.26
2022-11-05T16:51:43.788Z,79.52
2022-11-05T16:54:11.648Z,79.57
2022-11-05T16:56:38.833Z,79.40
2022-11-05T16:59:05.375Z,79.42
2022-11-05T17:01:34.407Z,79.62
2022-11-05T17:04:01.154Z,79.81
2022-11-05T17:06:27.769Z,79.43
2022-11-05T17:08:54.341Z,80.04
2022-11-05T17:11:22.283Z,79.79
2022-11-05T17:13:48.849Z,80.08
2022-11-05T17:16:17.342Z,80.18
2022-11-05T17:18:44.241Z,80.64
2022-11-05T17:21:11.134Z,80.74
2022-11-05T17:23:37.830Z,80.82
2022-11-05T17:26:06.891Z,80.94
2022-11-05T17:28:35.642Z,80.86
2022-11-05T17:31:04.342Z,81.15
2022-11-05T17:33:31.102Z,80.84
2022-11-05T17:35:57.875Z,80.67
2022-11-05T17:38:25.929Z,80.54
2022-11-05T17:40:53.369Z,80.69
2022-11-05T17:43:20.334Z,80.70
2022-11-05T17:45:50.817Z,80.65
2022-11-05T17:48:18.155Z,80.80
2022-11-05T17:50:46.582Z,80.87
2022-11-05T17:53:14.751Z,81.00
2022-11-05T17:55:42.427Z,80.84
2022-11-05T17:58:09.570Z,80.96
2022-11-05T18:00:36.753Z,80.96
2022-11-05T18:03:05.403Z,81.26
2022-11-05T18:05:34.062Z,81.60
2022-11-05T18:08:00.790Z,81.41
2022-11-05T18:10:27.609Z,81.59
2022-11-05T18:12:54.526Z,81.42
2022-11-05T18:15:21.640Z,81.70
2022-11-05T18:17:48.285Z,81.55
2022-11-05T18:20:19.393Z,81.48
2022-11-05T18:22:48.098Z,81.32
2022-11-05T18:25:14.824Z,81.29
2022-11-05T18:27:41.995Z,81.04
2022-11-05T18:30:10.586Z,80.98
2022-11-05T18:32:38.056Z,80.85
2022-11-05T18:35:05.221Z,81.33
2022-11-05T18:37:33.144Z,81.21
2022-11-05T18:39:59.727Z,81.91
2022-11-05T18:42:26.268Z,81.31
2022-11-05T18:44:52.883Z,81.29
2022-11-05T18:47:19.605Z,81.60
2022-11-05T18:49:46.165Z,82.01
2022-11-05T18:52:12.807Z,82.00
2022-11-05T18:54:40.761Z,81.61
2022-11-05T18:57:07.521Z,81.79
2022-11-05T18:59:38.281Z,81.78
2022-11-05T19:02:06.340Z,81.65
2022-11-05T19:04:34.995Z,81.88
2022-11-05T19:07:04.709Z,81.79
2022-11-05T19:09:32.447Z,81.87
2022-11-05T19:12:00.970Z,81.67
2022-11-05T19:14:27.714Z,81.68
2022-11-05T19:16:54.702Z,81.83
2022-11-05T19:19:21.448Z,82.05
2022-11-05T19:21:47.998Z,81.91
2022-11-05T19:24:17.620Z,81.64
2022-11-05T19:26:44.581Z,81.47
2022-11-05T19:29:12.612Z,81.46
2022-11-05T19:31:39.212Z,81.55
2022-11-05T19:34:06.088Z,81.67
2022-11-05T19:36:33.533Z,82.10
2022-11-05T19:39:05.868Z,82.17
2022-11-05T19:41:32.459Z,81.88
2022-11-05T19:43:59.063Z,81.81
2022-11-05T19:46:28.379Z,81.56
2022-11-05T19:48:54.903Z,81.65
2022-11-05T19:51:23.370Z,81.77
2022-11-05T19:53:50.328Z,81.64
2022-11-05T19:56:19.953Z,81.66
2022-11-05T19:58:46.964Z,81.55
2022-11-05T20:01:15.268Z,81.54
2022-11-05T20:03:43.696Z,81.29
2022-11-05T20:06:12.583Z,81.28
2022-11-05T20:08:53.296Z,80.90
2022-11-05T20:11:26.601Z,80.79
2022-11-05T20:13:53.144Z,80.95
2022-11-05T20:16:21.725Z,81.79
2022-11-05T20:18:49.856Z,81.90
2022-11-05T20:21:16.984Z,81.73
2022-11-05T20:23:43.572Z,81.28
2022-11-05T20:26:11.249Z,81.53
2022-11-05T20:28:39.224Z,81.36
2022-11-05T20:31:10.490Z,81.12
2022-11-05T20:33:37.379Z,81.34
2022-11-05T20:36:16.039Z,81.42
2022-11-05T20:38:43.372Z,81.62
2022-11-05T20:41:12.059Z,81.71
2022-11-05T20:43:39.818Z,81.49
2022-11-05T20:46:06.496Z,81.83
2022-11-05T20:48:34.012Z,81.87
2022-11-05T20:51:06.471Z,82.27
2022-11-05T20:53:33.725Z,82.61
2022-11-05T20:56:05.057Z,82.84
2022-11-05T20:58:34.761Z,83.42
2022-11-05T21:01:01.382Z,83.17
2022-11-05T21:03:27.890Z,82.66
2022-11-05T21:05:55.859Z,82.60
2022-11-05T21:08:23.685Z,82.43
2022-11-05T21:10:51.520Z,82.22
2022-11-05T21:13:18.328Z,82.47
2022-11-05T21:15:48.389Z,83.02
2022-11-05T21:18:15.047Z,82.74
2022-11-05T21:20:41.593Z,82.82
2022-11-05T21:23:08.148Z,83.06
2022-11-05T21:25:38.546Z,82.94
2022-11-05T21:28:05.356Z,82.98
2022-11-05T21:30:32.131Z,83.05
2022-11-05T21:32:58.624Z,83.03
2022-11-05T21:35:25.280Z,83.00
2022-11-05T21:37:51.790Z,83.00
2022-11-05T21:40:18.304Z,83.39
2022-11-05T21:42:46.238Z,83.54
2022-11-05T21:45:12.743Z,83.27
2022-11-05T21:47:39.365Z,83.30
2022-11-05T21:50:06.916Z,82.93
2022-11-05T21:52:33.653Z,82.99
2022-11-05T21:55:00.105Z,82.98
2022-11-05T21:57:26.594Z,82.95
2022-11-05T21:59:54.928Z,83.02
2022-11-05T22:02:23.227Z,82.80
2022-11-05T22:04:51.935Z,83.18
2022-11-05T22:07:20.711Z,83.33
2022-11-05T22:09:47.675Z,83.21
2022-11-05T22:12:14.489Z,83.27
2022-11-05T22:14:41.054Z,83.42
2022-11-05T22:17:09.903Z,83.48
2022-11-05T22:19:36.700Z,83.75
2022-11-05T22:22:04.451Z,83.90
2022-11-05T22:24:31.205Z,83.79
2022-11-05T22:26:58.809Z,83.39
2022-11-05T22:29:25.427Z,83.66
2022-11-05T22:31:51.959Z,83.74
2022-11-05T22:34:20.166Z,83.82
2022-11-05T22:36:46.872Z,84.14
2022-11-05T22:39:13.848Z,83.99
2022-11-05T22:41:40.807Z,83.89
2022-11-05T22:44:07.538Z,84.11
2022-11-05T22:46:34.142Z,84.13
2022-11-05T22:49:00.619Z,84.14
2022-11-05T22:51:30.824Z,84.09
2022-11-05T22:53:57.964Z,84.26
2022-11-05T22:56:26.258Z,84.30
2022-11-05T22:58:52.928Z,84.51
2022-11-05T23:01:21.013Z,84.56
2022-11-05T23:03:49.338Z,84.57
2022-11-05T23:06:19.798Z,84.89
2022-11-05T23:08:47.691Z,85.05
2022-11-05T23:11:15.743Z,85.14
2022-11-05T23:13:42.280Z,84.70
2022-11-05T23:16:08.935Z,84.46
2022-11-05T23:18:35.457Z,84.47
2022-11-05T23:21:02.082Z,84.96
2022-11-05T23:23:28.688Z,84.71
2022-11-05T23:25:58.421Z,84.71
2022-11-05T23:28:25.071Z,85.13
2022-11-05T23:30:51.561Z,85.07
2022-11-05T23:33:18.069Z,85.06
2022-11-05T23:35:44.565Z,85.12
2022-11-05T23:38:11.323Z,85.08
2022-11-05T23:40:38.088Z,85.17
2022-11-05T23:43:05.974Z,85.07
2022-11-05T23:45:33.378Z,85.43
2022-11-05T23:48:06.619Z,85.28
2022-11-05T23:50:38.548Z,85.31
2022-11-05T23:53:06.724Z,85.24
2022-11-05T23:55:33.386Z,85.28
2022-11-05T23:57:59.972Z,84.94
